^^
B2 Weather Station Historical Data
Daily Summary for July 5, 2019 Units:  English    Metric   Both
Daily Weekly Monthly Yearly Custom
  High: Low: Average:
Temperature: 92.2 °F 71.8 °F 81.3 °F
Dew Point: 79.4 °F 70.3 °F 75 °F
Humidity: 95% 58% 82%
Wind Speed: 11.5mph 0mph 3.6mph
Wind Gust: 6.2mph - -
Wind- - SSW
Pressure: 30.00 in 29.91 in -
Precipitation: 0 in    
Historical Graphs
 
 
Tabular Data for July 5, 2019
Time Temperature Dew Point Pressure Wind Wind Speed Wind Gust Humidity Rainfall Rate (Hourly) solar
00:04 73.3 °F 71.5 °F 29.96 in Calm     94% 0 in 0.00 W/m2
00:09 73.4 °F 71.6 °F 29.96 in Calm     94% 0 in 0.00 W/m2
00:14 73.5 °F 71.7 °F 29.96 in Calm     94% 0 in 0.00 W/m2
00:19 73.6 °F 71.8 °F 29.95 in Calm     94% 0 in 0.00 W/m2
00:24 73.7 °F 71.9 °F 29.95 in Calm     94% 0 in 0.00 W/m2
00:29 73.8 °F 72 °F 29.95 in SW 1.2 mph   94% 0 in 0.00 W/m2
00:34 74 °F 71.8 °F 29.95 in Calm     93% 0 in 0.00 W/m2
00:39 74.1 °F 71.9 °F 29.95 in Calm     93% 0 in 0.00 W/m2
00:44 74.1 °F 71.9 °F 29.95 in Calm     93% 0 in 0.00 W/m2
00:49 74.1 °F 71.9 °F 29.95 in SW 3.5 mph 0.3 mph 93% 0 in 0.00 W/m2
00:54 74 °F 71.5 °F 29.95 in Calm     92% 0 in 0.00 W/m2
00:59 74 °F 71.5 °F 29.95 in Calm     92% 0 in 0.00 W/m2
01:04 74 °F 71.5 °F 29.95 in Calm     92% 0 in 0.00 W/m2
01:09 74 °F 71.5 °F 29.95 in Calm     92% 0 in 0.00 W/m2
01:14 73.9 °F 71.4 °F 29.96 in Calm     92% 0 in 0.00 W/m2
01:19 73.9 °F 71.4 °F 29.95 in Calm     92% 0 in 0.00 W/m2
01:24 73.9 °F 71.7 °F 29.95 in Calm     93% 0 in 0.00 W/m2
01:29 73.8 °F 71.6 °F 29.96 in Calm     93% 0 in 0.00 W/m2
01:34 73.6 °F 71.4 °F 29.96 in Calm     93% 0 in 0.00 W/m2
01:39 73.5 °F 71.4 °F 29.96 in Calm     93% 0 in 0.00 W/m2
01:44 73.4 °F 71.3 °F 29.96 in Calm     93% 0 in 0.00 W/m2
01:49 73.3 °F 71.5 °F 29.96 in Calm     94% 0 in 0.00 W/m2
01:54 73.2 °F 71.4 °F 29.96 in Calm     94% 0 in 0.00 W/m2
01:59 73.2 °F 71.4 °F 29.96 in South 3.5 mph 2.3 mph 94% 0 in 0.00 W/m2
02:04 73.2 °F 71.4 °F 29.96 in South 3.5 mph 1.6 mph 94% 0 in 0.00 W/m2
02:09 73.3 °F 71.5 °F 29.96 in SSW 3.5 mph 0.6 mph 94% 0 in 0.00 W/m2
02:14 73.3 °F 71.5 °F 29.96 in SSW 3.5 mph 1.4 mph 94% 0 in 0.00 W/m2
02:19 73.3 °F 71.5 °F 29.96 in South 3.5 mph 1.2 mph 94% 0 in 0.00 W/m2
02:24 73.4 °F 71.6 °F 29.96 in South 2.3 mph 0.3 mph 94% 0 in 0.00 W/m2
02:29 73.4 °F 71.6 °F 29.96 in South 4 mph 2.1 mph 94% 0 in 0.00 W/m2
02:34 73.4 °F 71.6 °F 29.95 in SSW 2.3 mph 0.8 mph 94% 0 in 0.00 W/m2
02:39 73.4 °F 71.6 °F 29.95 in South 4.6 mph 1.3 mph 94% 0 in 0.00 W/m2
02:44 73.4 °F 71.6 °F 29.95 in South 5 mph 1.3 mph 94% 0 in 0.00 W/m2
02:49 73.4 °F 71.6 °F 29.95 in South 3.5 mph 1.3 mph 94% 0 in 0.00 W/m2
02:54 73.4 °F 71.6 °F 29.95 in SSW 4.6 mph 0.9 mph 94% 0 in 0.00 W/m2
02:59 73.4 °F 71.6 °F 29.95 in SSW 3.5 mph 1.6 mph 94% 0 in 0.00 W/m2
03:04 73.4 °F 71.6 °F 29.94 in South 3.5 mph 1.6 mph 94% 0 in 0.00 W/m2
03:09 73.4 °F 71.6 °F 29.94 in SSW 3.5 mph 0.8 mph 94% 0 in 0.00 W/m2
03:14 73.4 °F 71.6 °F 29.94 in SSW 3.5 mph 0.8 mph 94% 0 in 0.00 W/m2
03:19 73.3 °F 71.5 °F 29.94 in SSW 1.2 mph   94% 0 in 0.00 W/m2
03:24 73.3 °F 71.5 °F 29.94 in SSW 3.5 mph 1.1 mph 94% 0 in 0.00 W/m2
03:29 73.3 °F 71.5 °F 29.94 in South 3 mph 2.2 mph 94% 0 in 0.00 W/m2
03:34 73.2 °F 71.4 °F 29.93 in South 2.3 mph 1 mph 94% 0 in 0.00 W/m2
03:39 73.2 °F 71.4 °F 29.94 in South 1.2 mph 0.2 mph 94% 0 in 0.00 W/m2
03:44 73.1 °F 71.3 °F 29.94 in SSW 2 mph 0.3 mph 94% 0 in 0.00 W/m2
03:49 73 °F 71.2 °F 29.94 in SSW 2.3 mph 0.3 mph 94% 0 in 0.00 W/m2
03:54 73 °F 71.2 °F 29.93 in SSW 3.5 mph 1.7 mph 94% 0 in 0.00 W/m2
03:59 72.9 °F 71.1 °F 29.93 in SSW 2.3 mph 0.7 mph 94% 0 in 0.00 W/m2
04:04 72.9 °F 71.1 °F 29.93 in South 3.5 mph 0.4 mph 94% 0 in 0.00 W/m2
04:09 72.9 °F 71.1 °F 29.93 in South 3.5 mph 1 mph 94% 0 in 0.00 W/m2
04:14 72.8 °F 71 °F 29.93 in South 2.3 mph 0.8 mph 94% 0 in 0.00 W/m2
04:19 72.8 °F 71 °F 29.93 in South 3.5 mph 2.1 mph 94% 0 in 0.00 W/m2
04:24 72.7 °F 70.9 °F 29.93 in South 3.5 mph 1.2 mph 94% 0 in 0.00 W/m2
04:29 72.5 °F 70.7 °F 29.93 in South 2.3 mph   94% 0 in 0.00 W/m2
04:34 72.3 °F 70.8 °F 29.93 in Calm     95% 0 in 0.00 W/m2
04:39 72.2 °F 70.7 °F 29.94 in Calm     95% 0 in 0.00 W/m2
04:44 72.1 °F 70.6 °F 29.94 in South 2.3 mph   95% 0 in 0.00 W/m2
04:49 72.2 °F 70.7 °F 29.95 in SSW 1.2 mph 0.6 mph 95% 0 in 0.00 W/m2
04:54 72.2 °F 70.7 °F 29.95 in SSW 1.2 mph   95% 0 in 0.00 W/m2
04:59 72.2 °F 70.7 °F 29.95 in SW 1.2 mph   95% 0 in 0.00 W/m2
05:04 72.3 °F 70.8 °F 29.95 in SW 3.5 mph 1.8 mph 95% 0 in 0.00 W/m2
05:09 72.4 °F 70.9 °F 29.95 in SW 2.3 mph 0.9 mph 95% 0 in 0.00 W/m2
05:14 72.4 °F 70.9 °F 29.95 in SSW 3 mph 2.6 mph 95% 0 in 0.00 W/m2
05:19 72.4 °F 70.9 °F 29.95 in South 3.5 mph 0.6 mph 95% 0 in 0.00 W/m2
05:25 72.4 °F 70.9 °F 29.94 in South 3.5 mph 2 mph 95% 0 in 0.00 W/m2
05:29 72.3 °F 70.8 °F 29.94 in South 4 mph 1.9 mph 95% 0 in 0.00 W/m2
05:34 72.3 °F 70.8 °F 29.94 in South 3.5 mph 1.1 mph 95% 0 in 5.00 W/m2
05:39 72.3 °F 70.8 °F 29.95 in South 2.3 mph 0.4 mph 95% 0 in 5.00 W/m2
05:44 72.2 °F 70.7 °F 29.95 in South 1.2 mph 1.2 mph 95% 0 in 7.00 W/m2
05:49 72.2 °F 70.7 °F 29.95 in Calm     95% 0 in 7.00 W/m2
05:54 72.2 °F 70.7 °F 29.95 in South 2.3 mph 0.9 mph 95% 0 in 9.00 W/m2
05:59 72.1 °F 70.6 °F 29.95 in South 2.3 mph 0.1 mph 95% 0 in 9.00 W/m2
06:04 71.9 °F 70.4 °F 29.95 in South 2.3 mph 0.5 mph 95% 0 in 11.00 W/m2
06:09 71.8 °F 70.3 °F 29.95 in South 2.3 mph 0.4 mph 95% 0 in 14.00 W/m2
06:14 71.8 °F 70.3 °F 29.95 in Calm     95% 0 in 21.00 W/m2
06:19 71.9 °F 70.4 °F 29.95 in SE 1.2 mph   95% 0 in 51.00 W/m2
06:24 72.3 °F 70.8 °F 29.95 in SE 3.5 mph   95% 0 in 62.00 W/m2
06:29 72.6 °F 71.1 °F 29.95 in Calm     95% 0 in 72.00 W/m2
06:34 72.9 °F 71.4 °F 29.96 in Calm     95% 0 in 84.00 W/m2
06:39 73.2 °F 71.7 °F 29.96 in Calm     95% 0 in 97.00 W/m2
06:44 73.5 °F 72 °F 29.96 in Calm     95% 0 in 104.00 W/m2
06:49 73.9 °F 72.4 °F 29.96 in Calm     95% 0 in 130.00 W/m2
06:54 74.2 °F 72.7 °F 29.96 in Calm     95% 0 in 118.00 W/m2
06:59 74.5 °F 73 °F 29.96 in Calm     95% 0 in 167.00 W/m2
07:04 74.8 °F 73 °F 29.96 in Calm     94% 0 in 188.00 W/m2
07:09 75.1 °F 73.3 °F 29.96 in Calm     94% 0 in 197.00 W/m2
07:14 75.3 °F 73.1 °F 29.97 in Calm     93% 0 in 209.00 W/m2
07:19 75.6 °F 73.4 °F 29.97 in Calm     93% 0 in 225.00 W/m2
07:24 76 °F 73.5 °F 29.97 in Calm     92% 0 in 241.00 W/m2
07:29 76.4 °F 73.6 °F 29.97 in SW 3.5 mph   91% 0 in 257.00 W/m2
07:34 76.8 °F 73.6 °F 29.97 in Calm     90% 0 in 272.00 W/m2
07:39 77.1 °F 73.6 °F 29.97 in SSW 1 mph   89% 0 in 287.00 W/m2
07:44 77.4 °F 73.6 °F 29.98 in WSW 3.5 mph 0.1 mph 88% 0 in 297.00 W/m2
07:49 78 °F 74.2 °F 29.98 in Calm     88% 0 in 315.00 W/m2
07:54 78.4 °F 74.2 °F 29.98 in SW 3.5 mph 1.8 mph 87% 0 in 330.00 W/m2
07:59 78.7 °F 74.5 °F 29.98 in Calm     87% 0 in 345.00 W/m2
08:04 79.2 °F 75 °F 29.98 in SSW 2.3 mph 0.7 mph 87% 0 in 360.00 W/m2
08:09 79.3 °F 74.4 °F 29.98 in SW 1.2 mph   85% 0 in 374.00 W/m2
08:14 79.5 °F 74.9 °F 29.99 in South 1 mph   86% 0 in 387.00 W/m2
08:19 79.8 °F 74.9 °F 29.99 in SSW 3.5 mph 0.7 mph 85% 0 in 401.00 W/m2
08:24 80 °F 74.7 °F 29.99 in WSW 2.3 mph   84% 0 in 413.00 W/m2
08:30 80.1 °F 75.2 °F 29.99 in Calm     85% 0 in 434.00 W/m2
08:34 80.3 °F 75.4 °F 29.99 in Calm     85% 0 in 441.00 W/m2
08:39 80.3 °F 75 °F 30.00 in South 5.8 mph 1.5 mph 84% 0 in 445.00 W/m2
08:44 80.5 °F 75.6 °F 30.00 in SW 3.5 mph 0.6 mph 85% 0 in 436.00 W/m2
08:49 80.9 °F 76 °F 30.00 in SSE 3.5 mph 0.6 mph 85% 0 in 424.00 W/m2
08:54 81.1 °F 76.2 °F 30.00 in SSE 5.8 mph 2.1 mph 85% 0 in 422.00 W/m2
08:59 81.2 °F 75.9 °F 30.00 in South 3.5 mph 1.7 mph 84% 0 in 422.00 W/m2
09:04 81.2 °F 75.9 °F 30.00 in South 2.3 mph 0.2 mph 84% 0 in 385.00 W/m2
09:09 81.4 °F 76.5 °F 30.00 in South 3.5 mph 1.7 mph 85% 0 in 476.00 W/m2
09:14 81.6 °F 76.6 °F 30.00 in SSE 3.5 mph 3.1 mph 85% 0 in 570.00 W/m2
09:19 81.6 °F 75.9 °F 30.00 in West 4.6 mph 0.8 mph 83% 0 in 622.00 W/m2
09:24 81.5 °F 76.2 °F 30.00 in SSW 5.8 mph 0.4 mph 84% 0 in 580.00 W/m2
09:29 81.4 °F 75.7 °F 30.00 in WSW 10.4 mph 5.1 mph 83% 0 in 585.00 W/m2
09:34 81.6 °F 76.3 °F 30.00 in SSW 3.5 mph 0.4 mph 84% 0 in 599.00 W/m2
09:39 81.9 °F 76.2 °F 30.00 in SW 4 mph 0.6 mph 83% 0 in 598.00 W/m2
09:44 81.7 °F 76.4 °F 30.00 in SSW 5 mph 1.9 mph 84% 0 in 552.00 W/m2
09:49 82 °F 76.7 °F 30.00 in SW 3.5 mph 0.3 mph 84% 0 in 573.00 W/m2
09:54 82.5 °F 77.2 °F 30.00 in SSW 5.8 mph 0.5 mph 84% 0 in 577.00 W/m2
09:59 82.8 °F 77.1 °F 30.00 in SW 6 mph 3.3 mph 83% 0 in 566.00 W/m2
10:04 83 °F 76.9 °F 30.00 in South 5.8 mph 2.1 mph 82% 0 in 647.00 W/m2
10:09 83.2 °F 77.1 °F 30.00 in SW 4.6 mph 0.5 mph 82% 0 in 647.00 W/m2
10:14 83.6 °F 78.2 °F 30.00 in South 6.9 mph 2.2 mph 84% 0 in 666.00 W/m2
10:19 83.5 °F 77.8 °F 29.99 in South 3.5 mph 0.6 mph 83% 0 in 645.00 W/m2
10:25 83.6 °F 77.5 °F 29.99 in Calm     82% 0 in 656.00 W/m2
10:29 83.9 °F 77.8 °F 29.99 in SSW 6 mph 0.6 mph 82% 0 in 791.00 W/m2
10:34 84.1 °F 78 °F 30.00 in WSW 6.9 mph   82% 0 in 789.00 W/m2
10:39 84 °F 77.5 °F 30.00 in SW 4 mph 1.8 mph 81% 0 in 292.00 W/m2
10:44 83.8 °F 77.3 °F 30.00 in SSW 6.9 mph 2 mph 81% 0 in 279.00 W/m2
10:49 83.8 °F 78.1 °F 30.00 in South 4.6 mph 2 mph 83% 0 in 846.00 W/m2
10:54 84.2 °F 77.7 °F 29.99 in South 8.1 mph 3.8 mph 81% 0 in 879.00 W/m2
10:59 84.8 °F 78.3 °F 29.99 in South 3 mph 0.2 mph 81% 0 in 896.00 W/m2
11:04 85.3 °F 79.2 °F 29.99 in South 4 mph 1.5 mph 82% 0 in 802.00 W/m2
11:09 85.6 °F 78.3 °F 29.99 in SSE 4.6 mph   79% 0 in 763.00 W/m2
11:14 86 °F 78.7 °F 29.99 in SSW 4.6 mph 0.6 mph 79% 0 in 1039.00 W/m2
11:19 85.9 °F 77.8 °F 29.99 in West 8 mph 1.6 mph 77% 0 in 325.00 W/m2
11:24 85.5 °F 77.1 °F 29.99 in Calm     76% 0 in 322.00 W/m2
11:29 84.8 °F 76.4 °F 30.00 in SSW 5.8 mph 2.5 mph 76% 0 in 232.00 W/m2
11:34 84.8 °F 77.9 °F 29.99 in Calm     80% 0 in 986.00 W/m2
11:39 85.1 °F 77.1 °F 30.00 in Calm     77% 0 in 227.00 W/m2
11:44 84.8 °F 77.2 °F 29.99 in SW 3.5 mph 0.2 mph 78% 0 in 255.00 W/m2
11:49 85 °F 77.4 °F 29.99 in Calm     78% 0 in 299.00 W/m2
11:54 85.1 °F 77.5 °F 29.99 in South 1.2 mph 3.2 mph 78% 0 in 218.00 W/m2
11:59 85.2 °F 77.2 °F 29.99 in Calm     77% 0 in 255.00 W/m2
12:04 85.3 °F 77.3 °F 29.99 in WSW 5.8 mph 1.4 mph 77% 0 in 236.00 W/m2
12:09 85.1 °F 77.1 °F 29.99 in SW 3.5 mph   77% 0 in 369.00 W/m2
12:14 85.2 °F 77.2 °F 29.99 in West 4.6 mph 2.2 mph 77% 0 in 976.00 W/m2
12:19 85.9 °F 77.5 °F 29.99 in SW 6.9 mph 5.3 mph 76% 0 in 986.00 W/m2
12:24 86.4 °F 77.1 °F 29.99 in West 4.6 mph 4.3 mph 74% 0 in 1032.00 W/m2
12:29 86.5 °F 77.2 °F 29.99 in SSW 9.2 mph 3.8 mph 74% 0 in 1100.00 W/m2
12:34 86.6 °F 76.9 °F 29.98 in SW 4.6 mph 3.6 mph 73% 0 in 258.00 W/m2
12:39 87.1 °F 79 °F 29.98 in Calm     77% 0 in 1062.00 W/m2
12:44 87.5 °F 77.4 °F 29.98 in West 4.6 mph 5.3 mph 72% 0 in 1002.00 W/m2
12:49 87.7 °F 78 °F 29.98 in West 5.8 mph 1.6 mph 73% 0 in 1039.00 W/m2
12:54 88 °F 78.3 °F 29.98 in South 4 mph 1.7 mph 73% 0 in 1071.00 W/m2
12:59 88.3 °F 78.1 °F 29.98 in SW 3 mph 0.2 mph 72% 0 in 1000.00 W/m2
13:04 88.7 °F 78.5 °F 29.97 in SSW 4 mph 4.1 mph 72% 0 in 1035.00 W/m2
13:09 88.6 °F 77.1 °F 29.97 in South 8.1 mph 5.8 mph 69% 0 in 1007.00 W/m2
13:14 88.4 °F 76.5 °F 29.97 in WSW 6.9 mph 3.6 mph 68% 0 in 993.00 W/m2
13:19 88.5 °F 77.5 °F 29.96 in WSW 6.9 mph 4 mph 70% 0 in 1016.00 W/m2
13:24 88.5 °F 77.5 °F 29.96 in SW 6.9 mph 2.7 mph 70% 0 in 951.00 W/m2
13:29 88.6 °F 77.1 °F 29.96 in South 3.5 mph 2.1 mph 69% 0 in 925.00 W/m2
13:34 88.9 °F 77 °F 29.96 in WSW 8.1 mph 3.6 mph 68% 0 in 905.00 W/m2
13:39 89 °F 75.7 °F 29.95 in WSW 5.8 mph 1.1 mph 65% 0 in 896.00 W/m2
13:45 89.1 °F 76.3 °F 29.95 in Calm     66% 0 in 888.00 W/m2
13:49 89.2 °F 76.8 °F 29.95 in West 5.8 mph 2.8 mph 67% 0 in 895.00 W/m2
13:54 89.3 °F 76 °F 29.95 in South 10.4 mph 6.1 mph 65% 0 in 895.00 W/m2
13:59 89.3 °F 76 °F 29.95 in WSW 6 mph 3.8 mph 65% 0 in 900.00 W/m2
14:04 89.3 °F 75.5 °F 29.94 in SW 6.9 mph 3.9 mph 64% 0 in 914.00 W/m2
14:09 89.6 °F 77.2 °F 29.94 in SSW 3.5 mph 2.7 mph 67% 0 in 919.00 W/m2
14:14 89.9 °F 77 °F 29.94 in SSW 8.1 mph 3.9 mph 66% 0 in 911.00 W/m2
14:19 89.8 °F 76 °F 29.94 in NW 3.5 mph 0.7 mph 64% 0 in 896.00 W/m2
14:24 90 °F 77.6 °F 29.94 in South 4 mph 3.4 mph 67% 0 in 898.00 W/m2
14:29 90 °F 76.6 °F 29.94 in SSW 9 mph 2.7 mph 65% 0 in 928.00 W/m2
14:35 89.9 °F 76.6 °F 29.94 in South 3.5 mph 1.9 mph 65% 0 in 840.00 W/m2
14:39 90.2 °F 77.8 °F 29.93 in SW 5.8 mph 2.5 mph 67% 0 in 891.00 W/m2
14:44 90.5 °F 77.6 °F 29.93 in SSW 7 mph 3.5 mph 66% 0 in 854.00 W/m2
14:49 90.5 °F 76.7 °F 29.93 in South 7 mph 2.5 mph 64% 0 in 190.00 W/m2
14:54 90.1 °F 75.8 °F 29.93 in South 3.5 mph 3.1 mph 63% 0 in 886.00 W/m2
14:59 90.3 °F 76 °F 29.93 in SW 5 mph 1.1 mph 63% 0 in 875.00 W/m2
15:04 90.2 °F 75.4 °F 29.93 in WSW 3.5 mph 0.4 mph 62% 0 in 192.00 W/m2
15:09 90.1 °F 74.8 °F 29.93 in South 3.5 mph 1.3 mph 61% 0 in 174.00 W/m2
15:14 89.8 °F 74.1 °F 29.93 in Calm     60% 0 in 294.00 W/m2
15:19 89.5 °F 75.2 °F 29.93 in South 4.6 mph 1.6 mph 63% 0 in 246.00 W/m2
15:24 89.7 °F 76.4 °F 29.92 in WSW 5.8 mph 5.1 mph 65% 0 in 853.00 W/m2
15:29 90.2 °F 75.9 °F 29.92 in West 5.8 mph 1.5 mph 63% 0 in 846.00 W/m2
15:34 90.4 °F 75.1 °F 29.92 in South 8 mph 3.6 mph 61% 0 in 592.00 W/m2
15:39 90.7 °F 76.8 °F 29.92 in WSW 11.5 mph 4.5 mph 64% 0 in 860.00 W/m2
15:44 91.2 °F 75.4 °F 29.92 in SSW 6.9 mph 3.2 mph 60% 0 in 860.00 W/m2
15:49 91.5 °F 76.1 °F 29.91 in SSW 6.9 mph 2.5 mph 61% 0 in 784.00 W/m2
15:54 91.6 °F 75.7 °F 29.92 in SW 5.8 mph 4.1 mph 60% 0 in 772.00 W/m2
15:59 91.8 °F 76.4 °F 29.92 in South 8.1 mph 3.9 mph 61% 0 in 800.00 W/m2
16:04 92.1 °F 76.2 °F 29.92 in West 6 mph 4.7 mph 60% 0 in 796.00 W/m2
16:09 92.2 °F 75.3 °F 29.92 in SSW 5.8 mph 3.2 mph 58% 0 in 758.00 W/m2
16:14 92 °F 76.6 °F 29.92 in SW 3.5 mph 0.8 mph 61% 0 in 594.00 W/m2
16:19 91.7 °F 75.3 °F 29.91 in South 3.5 mph 1.5 mph 59% 0 in 220.00 W/m2
16:24 91.1 °F 75.3 °F 29.91 in WSW 6.9 mph 2.8 mph 60% 0 in 246.00 W/m2
16:29 90.8 °F 75 °F 29.91 in SW 4.6 mph 2.6 mph 60% 0 in 599.00 W/m2
16:34 91.1 °F 75.8 °F 29.91 in SSW 4 mph 2.8 mph 61% 0 in 621.00 W/m2
16:39 91.2 °F 75.4 °F 29.91 in SW 3.5 mph 2.1 mph 60% 0 in 615.00 W/m2
16:44 91 °F 78.1 °F 29.91 in South 3.5 mph 2.4 mph 66% 0 in 334.00 W/m2
16:49 90.4 °F 77.9 °F 29.91 in South 6.9 mph 4.4 mph 67% 0 in 257.00 W/m2
16:54 89.9 °F 78.4 °F 29.91 in SSW 6.9 mph 3.4 mph 69% 0 in 610.00 W/m2
16:59 90.1 °F 79.4 °F 29.91 in North 5.8 mph 0.6 mph 71% 0 in 621.00 W/m2
17:04 90.1 °F 78.1 °F 29.91 in South 9.2 mph 4.2 mph 68% 0 in 559.00 W/m2
17:09 90 °F 77.6 °F 29.92 in South 5.8 mph 4.2 mph 67% 0 in 508.00 W/m2
17:14 89.8 °F 77.4 °F 29.92 in SW 5.8 mph 4.5 mph 67% 0 in 487.00 W/m2
17:19 89.6 °F 77.6 °F 29.92 in SSE 8.1 mph 3.3 mph 68% 0 in 434.00 W/m2
17:24 89.1 °F 77.6 °F 29.91 in SSW 4.6 mph 1.5 mph 69% 0 in 431.00 W/m2
17:29 88.8 °F 77.3 °F 29.92 in SSW 5.8 mph 2.2 mph 69% 0 in 434.00 W/m2
17:34 88.5 °F 77.5 °F 29.92 in SSE 8 mph 6.2 mph 70% 0 in 392.00 W/m2
17:39 88.2 °F 77.2 °F 29.91 in SSE 8.1 mph 5 mph 70% 0 in 359.00 W/m2
17:44 88 °F 77 °F 29.91 in South 8.1 mph 4.7 mph 70% 0 in 323.00 W/m2
17:49 87.9 °F 78.2 °F 29.92 in South 7 mph 3.7 mph 73% 0 in 302.00 W/m2
17:54 87.9 °F 77.3 °F 29.91 in South 8.1 mph 3 mph 71% 0 in 276.00 W/m2
17:59 87.9 °F 76.9 °F 29.91 in South 5.8 mph 3.6 mph 70% 0 in 265.00 W/m2
18:04 87.7 °F 77.1 °F 29.91 in SSW 8.1 mph 5.2 mph 71% 0 in 262.00 W/m2
18:09 87.3 °F 76.7 °F 29.91 in SSW 8.1 mph 3.6 mph 71% 0 in 229.00 W/m2
18:14 86.9 °F 76.8 °F 29.91 in SSW 6.9 mph 3.9 mph 72% 0 in 250.00 W/m2
18:19 86.9 °F 77.2 °F 29.91 in South 8.1 mph 3.6 mph 73% 0 in 241.00 W/m2
18:24 86.8 °F 77.1 °F 29.91 in SW 4.6 mph 2.4 mph 73% 0 in 272.00 W/m2
18:29 87.1 °F 76.5 °F 29.91 in South 9.2 mph 5 mph 71% 0 in 243.00 W/m2
18:34 87.1 °F 76.5 °F 29.91 in South 4 mph 3.5 mph 71% 0 in 220.00 W/m2
18:39 87 °F 76.9 °F 29.91 in South 8.1 mph 2.2 mph 72% 0 in 200.00 W/m2
18:44 86.8 °F 76.7 °F 29.91 in SSW 8.1 mph 3.5 mph 72% 0 in 179.00 W/m2
18:49 86.7 °F 77 °F 29.92 in South 7 mph 3 mph 73% 0 in 192.00 W/m2
18:54 86.4 °F 77.1 °F 29.91 in SSW 6.9 mph 2.8 mph 74% 0 in 109.00 W/m2
18:59 86.1 °F 76.8 °F 29.92 in SSW 6.9 mph 3.9 mph 74% 0 in 86.00 W/m2
19:04 85.7 °F 76.5 °F 29.92 in SW 6.9 mph 2.1 mph 74% 0 in 74.00 W/m2
19:09 85.4 °F 76.2 °F 29.92 in South 6.9 mph 4.8 mph 74% 0 in 58.00 W/m2
19:14 85.2 °F 76.8 °F 29.92 in SW 5.8 mph 3 mph 76% 0 in 56.00 W/m2
19:19 84.9 °F 76.9 °F 29.92 in SSE 6.9 mph 2.4 mph 77% 0 in 54.00 W/m2
19:24 84.7 °F 76.7 °F 29.92 in South 5.8 mph 3.3 mph 77% 0 in 53.00 W/m2
19:29 84.7 °F 77.1 °F 29.92 in SSW 3.5 mph 2.6 mph 78% 0 in 47.00 W/m2
19:34 84.6 °F 77 °F 29.92 in SW 3.5 mph 0.6 mph 78% 0 in 42.00 W/m2
19:39 84.5 °F 76.9 °F 29.92 in SSW 6.9 mph 4 mph 78% 0 in 39.00 W/m2
19:44 84.4 °F 76.8 °F 29.92 in SSW 4.6 mph 1.5 mph 78% 0 in 33.00 W/m2
19:49 84.2 °F 76.6 °F 29.92 in SW 9.2 mph 3.6 mph 78% 0 in 30.00 W/m2
19:54 84 °F 76.8 °F 29.92 in North 5.8 mph 1.4 mph 79% 0 in 25.00 W/m2
19:59 83.9 °F 76.7 °F 29.92 in SW 4.6 mph 0.3 mph 79% 0 in 21.00 W/m2
20:04 83.7 °F 76.5 °F 29.92 in SSW 3.5 mph 1 mph 79% 0 in 16.00 W/m2
20:09 83.6 °F 76.8 °F 29.92 in SSW 1.2 mph 0.2 mph 80% 0 in 11.00 W/m2
20:14 83.4 °F 76.6 °F 29.92 in SSW 2 mph 0.8 mph 80% 0 in 7.00 W/m2
20:19 83.3 °F 76.5 °F 29.92 in SSW 2.3 mph 0.6 mph 80% 0 in 5.00 W/m2
20:24 83.1 °F 76.7 °F 29.93 in SSW 2 mph 0.9 mph 81% 0 in 0.00 W/m2
20:29 83 °F 76.6 °F 29.93 in SSW 2 mph 0.2 mph 81% 0 in 0.00 W/m2
20:34 82.9 °F 76.5 °F 29.93 in Calm     81% 0 in 0.00 W/m2
20:39 82.8 °F 76.7 °F 29.93 in SSW 3.5 mph 0.9 mph 82% 0 in 0.00 W/m2
20:44 82.8 °F 76.7 °F 29.93 in SSW 3.5 mph 1.1 mph 82% 0 in 0.00 W/m2
20:49 82.7 °F 76.6 °F 29.93 in South 4.6 mph 1.1 mph 82% 0 in 0.00 W/m2
20:54 82.6 °F 76.5 °F 29.93 in SSW 2.3 mph 1.4 mph 82% 0 in 0.00 W/m2
20:59 82.6 °F 76.9 °F 29.93 in SSW 3.5 mph 0.7 mph 83% 0 in 0.00 W/m2
21:04 82.4 °F 76.7 °F 29.93 in SSW 1.2 mph 0.1 mph 83% 0 in 0.00 W/m2
21:09 82 °F 76.7 °F 29.93 in Calm     84% 0 in 0.00 W/m2
21:14 81.7 °F 76.7 °F 29.93 in Calm   0.2 mph 85% 0 in 0.00 W/m2
21:20 81.4 °F 76.8 °F 29.94 in Calm     86% 0 in 0.00 W/m2
21:24 81 °F 76.4 °F 29.94 in SSW 1.2 mph 0.1 mph 86% 0 in 0.00 W/m2
21:29 80.6 °F 76.4 °F 29.94 in Calm     87% 0 in 0.00 W/m2
21:34 80.3 °F 76.4 °F 29.94 in Calm     88% 0 in 0.00 W/m2
21:39 80.2 °F 76.7 °F 29.94 in Calm     89% 0 in 0.00 W/m2
21:45 80 °F 76.5 °F 29.95 in Calm     89% 0 in 0.00 W/m2
21:49 79.9 °F 76.7 °F 29.95 in Calm     90% 0 in 0.00 W/m2
21:54 79.9 °F 76.7 °F 29.95 in SSW 1 mph   90% 0 in 0.00 W/m2
21:59 79.9 °F 76.7 °F 29.95 in SSW 1.2 mph   90% 0 in 0.00 W/m2
22:04 80 °F 76.8 °F 29.95 in SSW 3.5 mph 1.3 mph 90% 0 in 0.00 W/m2
22:09 80.2 °F 77 °F 29.95 in SW 4 mph 2.1 mph 90% 0 in 0.00 W/m2
22:14 80.5 °F 77 °F 29.95 in SW 2.3 mph 1.2 mph 89% 0 in 0.00 W/m2
22:19 80.7 °F 77.2 °F 29.95 in SSW 2.3 mph 0.3 mph 89% 0 in 0.00 W/m2
22:24 80.8 °F 77.3 °F 29.95 in South 3.5 mph 2 mph 89% 0 in 0.00 W/m2
22:29 80.9 °F 77.4 °F 29.95 in SW 5.8 mph 2.9 mph 89% 0 in 0.00 W/m2
22:34 81.1 °F 77.2 °F 29.95 in SW 4.6 mph 3 mph 88% 0 in 0.00 W/m2
22:39 81.1 °F 77.2 °F 29.94 in WSW 6 mph 5.6 mph 88% 0 in 0.00 W/m2
22:44 81.1 °F 76.9 °F 29.94 in WSW 3.5 mph 2.7 mph 87% 0 in 0.00 W/m2
22:49 81 °F 76.8 °F 29.95 in SW 4.6 mph 3 mph 87% 0 in 0.00 W/m2
22:54 80.9 °F 76.7 °F 29.95 in WSW 6.9 mph 3.1 mph 87% 0 in 0.00 W/m2
22:59 80.8 °F 76.6 °F 29.94 in WSW 3.5 mph 1.9 mph 87% 0 in 0.00 W/m2
23:04 80.7 °F 76.5 °F 29.94 in SW 4.6 mph 2.6 mph 87% 0 in 0.00 W/m2
23:09 80.6 °F 76.4 °F 29.93 in SW 5.8 mph 2.9 mph 87% 0 in 0.00 W/m2
23:14 80.5 °F 76.3 °F 29.93 in WSW 6 mph 2.2 mph 87% 0 in 0.00 W/m2
23:19 80.5 °F 76.3 °F 29.93 in SW 5.8 mph 4.6 mph 87% 0 in 0.00 W/m2
23:24 80.3 °F 76.1 °F 29.93 in SW 4.6 mph 2.9 mph 87% 0 in 0.00 W/m2
23:29 80.2 °F 76 °F 29.93 in WSW 2 mph 0.5 mph 87% 0 in 0.00 W/m2
23:34 80.1 °F 75.9 °F 29.93 in SW 3.5 mph 0.7 mph 87% 0 in 0.00 W/m2
23:39 80 °F 75.8 °F 29.93 in SW 3.5 mph 1.2 mph 87% 0 in 0.00 W/m2
23:44 79.9 °F 75.7 °F 29.93 in SW 2.3 mph 1.1 mph 87% 0 in 0.00 W/m2
23:49 79.8 °F 75.6 °F 29.93 in WNW 3.5 mph 1.2 mph 87% 0 in 0.00 W/m2
23:54 79.8 °F 75.6 °F 29.93 in West 3.5 mph 0.9 mph 87% 0 in 0.00 W/m2
23:59 79.8 °F 75.6 °F 29.93 in West 1.2 mph 0.1 mph 87% 0 in 0.00 W/m2
Bourbonnais, Illinois, USA
Compliments of Weather Underground - 4 mb